메인 페이지
METAR-TAF:

METAR-TAF

공항 :

사비하 괵첸 국제공항

이스탄불 Sabiha Gökçen, 터키

위도: 40-53-55N, 경도: 029-18-33E, 고도: 95m

현재 날씨관측

예보는 30분 전, 15:20시(UTC)에 발표되었습니다.
북동11kt
온도 18°C
습도 77%
기압 1021 hPa
시정 10km 이상
1500m 미만 상공 구름 및 적란운 없음

METAR: LTFJ 211520Z 05011KT CAVOK 18/14 Q1021 NOSIG

시각: 18:50 (15:50 UTC)

예보

예보는 5 시간 10분 전, 10:40시(UTC)에 발표되었습니다.
예보 대상 시간: 21일 12시부터 22일 12시까지 (UTC)
북동17kt
시정 10km 이상
고도 3000ft 상공 구름 보통
일시적
21일 12시부터 21일 15시까지 (UTC)
북동17kt, 순간 최대 풍속 30kt
전환 중
21일 15시부터 21일 18시까지 (UTC)
시정 10km 이상
1500m 미만 상공 구름 및 적란운 없음
전환 중
21일 18시부터 21일 21시까지 (UTC)
북동7kt
전환 중
21일 22시부터 22일 02시까지 (UTC)
고도 1500ft 상공 구름 보통
확률 30% :
일시적
22일 02시부터 22일 06시까지 (UTC)
시정: 2500m
고도 1000ft 상공 구름 많음
박무

TAF: LTFJ 211040Z 2112/2212 04017KT 9999 SCT030 TEMPO 2112/2115 04017G30KT BECMG 2115/2118 CAVOK BECMG 2118/2121 04007KT BECMG 2122/2202 SCT015 PROB30 TEMPO 2202/2206 2500 BR BKN010

4,000개 이상의 공항 관측 자료 및 예보 (METAR 및 TAF 보고).

지도상에서 검색 가능한 기상관측소가 노란 점과 빨간 점으로 표시되어 있습니다.

기상관측소 명을 보려면 표시 위로 마우스를 이동하세요.

날씨 관측과 예보를 보려면 클릭하세요.

지도 변경 : 확대하려면 엑스 표시가 있는 녹색 버튼, 축소하려면 빼기 표시가 있는 녹색 버튼, 다음 페이지의 지도를 보려면 녹색 화살표를 클릭하세요.


METAR-TAF: